Flight Track Log - Related Links

Times and Time Zones

All times are in EST time to prevent confusion due to time zone crossing. See the EJA831 flight status page for this flight to view local times or setup timezone preferences in your user account.

Time Position Orientation Groundspeed Altitude Reporting Facility
EST Latitude Longitude Course Direction KTS MPH feet Rate Location/Type
Sun 09:01:36 AM 29.5464 -98.4922 310° West 178 205 2,100  Level Houston Center
Sun 09:02:05 AM 29.5642 -98.5167 310° West 203 234 4,000 2,933 Climbing Houston Center
Sun 09:03:06 AM 29.5956 -98.5889 297° West 264 304 6,500 3,246 Climbing Houston Center
Sun 09:04:07 AM 29.6333 -98.6556 303° West 268 308 10,600 3,787 Climbing Houston Center
Sun 09:05:08 AM 29.7067 -98.6281 18° North 290 334 14,200 3,443 Climbing Houston Center
Sun 09:06:09 AM 29.7953 -98.6047 13° North 303 349 17,600 3,049 Climbing Houston Center
Sun 09:07:10 AM 29.8819 -98.5872 10° North 314 361 20,400 2,803 Climbing Houston Center
Sun 09:08:11 AM 29.9725 -98.5689 10° North 328 377 23,300 2,607 Climbing Houston Center
Sun 09:09:12 AM 30.0656 -98.5500 10° North 339 390 25,700 2,213 Climbing Houston Center
Sun 09:10:13 AM 30.1614 -98.5303 10° North 349 402 27,800 1,869 Climbing Houston Center
Sun 09:11:14 AM 30.2706 -98.5081 10° North 368 423 29,500 1,475 Climbing Houston Center
Sun 09:12:15 AM 30.3683 -98.4883 10° North 382 440 30,800 1,377 Climbing Houston Center
Sun 09:13:16 AM 30.4772 -98.4664 10° North 390 449 32,300 1,426 Climbing Houston Center
Sun 09:14:17 AM 30.5844 -98.4444 10° North 387 445 33,700 1,230 Climbing Houston Center
Sun 09:15:18 AM 30.6939 -98.4219 10° North 392 451 34,800 639 Climbing Houston Center
Sun 09:16:19 AM 30.8075 -98.3986 10° North 402 463 35,000 98 Climbing Houston Center
Sun 09:17:21 AM 30.9261 -98.3753 10° North 421 484 35,000  Level Houston Center
Sun 09:18:22 AM 31.0461 -98.3503 10° North 429 494 35,000  Level Houston Center
Sun 09:19:15 AM 31.1442 -98.3308 10° North 430 495 35,000  Level Fort Worth Center
Sun 09:20:17 AM 31.2597 -98.3083 North 419 482 35,000  Level Fort Worth Center
Sun 09:21:18 AM 31.3722 -98.2861 10° North 406 467 35,000  Level Fort Worth Center
Sun 09:22:19 AM 31.5000 -98.2619 North 394 453 35,000  Level Fort Worth Center
Sun 09:23:20 AM 31.6097 -98.2403 10° North 394 453 35,000  Level Fort Worth Center
Sun 09:24:21 AM 31.7169 -98.2186 10° North 389 448 35,000  Level Fort Worth Center
Sun 09:25:22 AM 31.8242 -98.1983 North 387 445 35,000  Level Fort Worth Center
Sun 09:26:23 AM 31.9317 -98.1761 10° North 387 445 35,000  Level Fort Worth Center
Sun 09:27:24 AM 32.0311 -98.1569 North 388 447 35,000  Level Fort Worth Center
Sun 09:28:25 AM 32.1386 -98.1336 10° North 393 452 35,000  Level Fort Worth Center
Sun 09:29:26 AM 32.2478 -98.1122 North 395 455 35,000  Level Fort Worth Center
Sun 09:30:27 AM 32.3561 -98.0911 North 395 455 35,000  Level Fort Worth Center
Sun 09:31:28 AM 32.4644 -98.0694 10° North 395 455 35,000  Level Fort Worth Center
Sun 09:32:29 AM 32.5947 -98.0428 10° North 395 455 35,000  Level Fort Worth Center
Sun 09:33:31 AM 32.7019 -98.0214 10° North 392 451 35,000  Level Fort Worth Center
Sun 09:34:32 AM 32.8103 -97.9983 10° North 394 453 35,000  Level Fort Worth Center
Sun 09:35:33 AM 32.9183 -97.9769 North 391 450 35,000  Level Fort Worth Center
Sun 09:36:34 AM 33.0267 -97.9542 10° North 393 452 35,000  Level Fort Worth Center
Sun 09:37:35 AM 33.1325 -97.9319 10° North 388 447 35,000  Level Fort Worth Center
Sun 09:38:36 AM 33.2406 -97.9100 10° North 391 450 35,000  Level Fort Worth Center
Sun 09:39:37 AM 33.3486 -97.8875 10° North 393 452 35,000  Level Fort Worth Center
Sun 09:40:39 AM 33.4536 -97.8667 North 385 443 35,000  Level Fort Worth Center
Sun 09:41:40 AM 33.5589 -97.8442 10° North 382 440 35,000  Level Fort Worth Center
Sun 09:42:41 AM 33.6636 -97.8225 10° North 380 437 35,000  Level Fort Worth Center
Sun 09:43:42 AM 33.7672 -97.8008 10° North 377 434 35,000  Level Fort Worth Center
Sun 09:44:44 AM 33.8703 -97.7800 10° North 375 432 35,000  Level Fort Worth Center
Sun 09:45:45 AM 33.9928 -97.7556 North 373 429 35,000  Level Fort Worth Center
Sun 09:46:46 AM 34.0958 -97.7328 10° North 375 432 35,000  Level Fort Worth Center
Sun 09:47:47 AM 34.1875 -97.7156 North 365 420 35,000  Level Fort Worth Center
Sun 09:48:48 AM 34.2889 -97.6942 10° North 367 422 35,000  Level Fort Worth Center
Sun 09:49:50 AM 34.3900 -97.6731 10° North 368 423 35,000  Level Fort Worth Center
Sun 09:50:51 AM 34.4906 -97.6522 10° North 368 423 35,000  Level Fort Worth Center
Sun 09:51:52 AM 34.6108 -97.6269 10° North 365 420 35,000  Level Fort Worth Center
Sun 09:52:54 AM 34.7114 -97.6050 10° North 365 420 35,000  Level Fort Worth Center
Sun 09:53:55 AM 34.8114 -97.5833 10° North 365 420 35,000  Level Fort Worth Center
Sun 09:54:56 AM 34.9111 -97.5625 10° North 365 420 35,000  Level Fort Worth Center
Sun 09:55:57 AM 35.0119 -97.5408 10° North 365 420 35,000  Level Fort Worth Center
Sun 09:56:59 AM 35.1122 -97.5194 10° North 366 421 35,000  Level Fort Worth Center
Sun 09:58:00 AM 35.2211 -97.4961 10° North 367 422 35,000  Level Fort Worth Center
Sun 09:59:01 AM 35.3242 -97.4731 10° North 371 427 35,000  Level Fort Worth Center
Sun 10:00:03 AM 35.4272 -97.4511 10° North 373 429 35,000  Level Fort Worth Center
Sun 10:01:04 AM 35.5289 -97.4289 10° North 375 432 35,000  Level Fort Worth Center
Sun 10:02:06 AM 35.6339 -97.4056 10° North 379 436 35,000  Level Fort Worth Center
Sun 10:02:50 AM 35.7175 -97.3861 11° North 381 438 35,000  Level Kansas City Center
Sun 10:03:50 AM 35.8231 -97.3639 10° North 384 442 35,000  Level Kansas City Center
Sun 10:04:50 AM 35.9272 -97.3422 10° North 382 440 35,000  Level Kansas City Center
Sun 10:05:52 AM 36.0344 -97.3181 10° North 388 447 35,000  Level Kansas City Center
Sun 10:06:54 AM 36.1408 -97.2956 10° North 389 448 35,000  Level Kansas City Center
Sun 10:07:55 AM 36.2472 -97.2706 11° North 389 448 35,000  Level Kansas City Center
Sun 10:08:57 AM 36.3547 -97.2475 10° North 391 450 35,000  Level Kansas City Center
Sun 10:09:58 AM 36.4619 -97.2244 10° North 391 450 35,000  Level Kansas City Center
Sun 10:10:58 AM 36.5914 -97.1942 11° North 393 452 35,000  Level Kansas City Center
Sun 10:12:00 AM 36.6994 -97.1714 10° North 394 453 35,000 -145 Level Kansas City Center
Sun 10:13:02 AM 36.8067 -97.1489 10° North 392 451 34,700 -488 Descending Kansas City Center
Sun 10:14:03 AM 36.9067 -97.1275 10° North 383 441 34,000 -339 Descending Kansas City Center
Sun 10:15:06 AM 37.0058 -97.1092 North 366 421 34,000  Level Kansas City Center
Sun 10:16:05 AM 37.1058 -97.0886 North 365 420 34,000  Level Kansas City Center
Sun 10:17:08 AM 37.2067 -97.0683 North 367 422 34,000  Level Kansas City Center
Sun 10:18:10 AM 37.3075 -97.0481 North 366 421 34,000  Level Kansas City Center
Sun 10:19:12 AM 37.4281 -97.0247 North 366 421 34,000  Level Kansas City Center
Sun 10:20:12 AM 37.5286 -97.0036 North 366 421 34,000 -689 Level Kansas City Center
Sun 10:21:14 AM 37.6308 -96.9833 North 371 427 32,600 -1,756 Descending Kansas City Center
Sun 10:22:15 AM 37.7328 -96.9622 North 372 428 30,400 -2,182 Descending Kansas City Center
Sun 10:23:15 AM 37.8322 -96.9419 North 366 421 28,200 -2,146 Descending Kansas City Center
Sun 10:24:18 AM 37.9292 -96.9228 North 358 412 26,000 -2,146 Descending Kansas City Center
Sun 10:25:18 AM 38.0242 -96.9033 North 348 400 23,800 -2,083 Descending Kansas City Center
Sun 10:26:19 AM 38.1192 -96.8831 10° North 347 399 21,800 -2,129 Descending Kansas City Center
Sun 10:27:22 AM 38.2331 -96.8594 North 347 399 19,400 -2,032 Descending Kansas City Center
Sun 10:28:23 AM 38.3247 -96.8406 North 336 387 17,600 -1,918 Descending Kansas City Center
Sun 10:29:24 AM 38.4164 -96.8214 North 334 384 15,500 -2,083 Descending Kansas City Center
Sun 10:30:24 AM 38.5136 -96.8031 North 326 375 13,400 -1,967 Descending Kansas City Center
Sun 10:31:26 AM 38.5981 -96.7853 North 320 368 11,500 -1,951 Descending Kansas City Center
Sun 10:32:27 AM 38.6800 -96.7681 North 281 323 9,400 -2,016 Descending Kansas City Center
Sun 10:33:31 AM 38.7547 -96.7525 North 261 300 7,300 -2,032 Descending Kansas City Center
Sun 10:34:31 AM 38.8283 -96.7372 North 257 296 5,200 -1,636 Descending Kansas City Center
Sun 10:35:32 AM 38.8978 -96.7228 North 262 302 4,000 -590 Descending Kansas City Center
Sun 10:36:33 AM 38.9711 -96.7075 North 258 297 4,000 -590 Level Kansas City Center
Sun 10:37:34 AM 39.0403 -96.6722 22° Northeast 266 306 2,800 -677 Descending Kansas City Center
Sun 10:38:37 AM 39.1008 -96.6242 32° Northeast 242 278 2,600 -97 Descending Kansas City Center
Sun 10:39:38 AM 39.1561 -96.5861 28° Northeast 220 253 2,600 -290 Level Kansas City Center
Sun 10:40:41 AM 39.1717 -96.6239 298° West 128 147 2,000 -581 Descending Kansas City Center
Sun 10:41:42 AM 39.1564 -96.6531 236° Southwest 103 119 1,400 -443 Descending Kansas City Center
Sun 10:42:43 AM 39.1342 -96.6786 222° Southwest 104 120 1,100 -295 Descending Kansas City Center

Login

Don't have an account? Register now (free) for customized features, flight alerts, and more!